sensor_id;sensor_type;location;lat;lon;timestamp;P1;durP1;ratioP1;P2;durP2;ratioP2
5452;SDS011;2749;53.576;9.822;2022-07-19T00:02:26;8.50;;;7.00;;
5452;SDS011;2749;53.576;9.822;2022-07-19T00:04:52;11.07;;;7.60;;
5452;SDS011;2749;53.576;9.822;2022-07-19T00:07:18;10.80;;;8.40;;
5452;SDS011;2749;53.576;9.822;2022-07-19T00:09:43;9.03;;;7.50;;
5452;SDS011;2749;53.576;9.822;2022-07-19T00:12:09;10.17;;;7.50;;
5452;SDS011;2749;53.576;9.822;2022-07-19T00:14:38;8.83;;;6.80;;
5452;SDS011;2749;53.576;9.822;2022-07-19T00:17:04;9.37;;;8.40;;
5452;SDS011;2749;53.576;9.822;2022-07-19T00:19:30;9.77;;;7.00;;
5452;SDS011;2749;53.576;9.822;2022-07-19T00:21:56;11.20;;;7.93;;
5452;SDS011;2749;53.576;9.822;2022-07-19T00:24:22;8.80;;;7.87;;
5452;SDS011;2749;53.576;9.822;2022-07-19T00:26:48;6.83;;;6.13;;
5452;SDS011;2749;53.576;9.822;2022-07-19T00:29:14;12.80;;;8.60;;
5452;SDS011;2749;53.576;9.822;2022-07-19T00:31:40;12.23;;;8.50;;
5452;SDS011;2749;53.576;9.822;2022-07-19T00:34:05;10.30;;;7.27;;
5452;SDS011;2749;53.576;9.822;2022-07-19T00:36:31;11.00;;;8.03;;
5452;SDS011;2749;53.576;9.822;2022-07-19T00:38:57;9.60;;;8.07;;
5452;SDS011;2749;53.576;9.822;2022-07-19T00:41:23;8.00;;;6.57;;
5452;SDS011;2749;53.576;9.822;2022-07-19T00:43:49;12.20;;;8.43;;
5452;SDS011;2749;53.576;9.822;2022-07-19T00:46:17;10.47;;;8.23;;
5452;SDS011;2749;53.576;9.822;2022-07-19T00:48:43;13.00;;;7.30;;
5452;SDS011;2749;53.576;9.822;2022-07-19T00:51:10;8.67;;;7.13;;
5452;SDS011;2749;53.576;9.822;2022-07-19T00:53:36;8.63;;;7.83;;
5452;SDS011;2749;53.576;9.822;2022-07-19T00:56:03;10.60;;;9.30;;
5452;SDS011;2749;53.576;9.822;2022-07-19T00:58:30;11.50;;;9.27;;
5452;SDS011;2749;53.576;9.822;2022-07-19T01:00:56;8.83;;;7.93;;
5452;SDS011;2749;53.576;9.822;2022-07-19T01:03:22;9.00;;;7.63;;
5452;SDS011;2749;53.576;9.822;2022-07-19T01:05:48;8.80;;;7.80;;
5452;SDS011;2749;53.576;9.822;2022-07-19T01:08:15;9.80;;;7.37;;
5452;SDS011;2749;53.576;9.822;2022-07-19T01:10:42;7.23;;;6.63;;
5452;SDS011;2749;53.576;9.822;2022-07-19T01:13:08;11.10;;;7.83;;
5452;SDS011;2749;53.576;9.822;2022-07-19T01:15:34;11.00;;;7.70;;
5452;SDS011;2749;53.576;9.822;2022-07-19T01:18:01;9.93;;;7.43;;
5452;SDS011;2749;53.576;9.822;2022-07-19T01:20:27;9.03;;;7.60;;
5452;SDS011;2749;53.576;9.822;2022-07-19T01:22:53;10.23;;;7.77;;
5452;SDS011;2749;53.576;9.822;2022-07-19T01:25:23;12.97;;;7.70;;
5452;SDS011;2749;53.576;9.822;2022-07-19T01:27:49;8.50;;;6.40;;
5452;SDS011;2749;53.576;9.822;2022-07-19T01:30:16;7.93;;;6.60;;
5452;SDS011;2749;53.576;9.822;2022-07-19T01:32:43;12.40;;;7.50;;
5452;SDS011;2749;53.576;9.822;2022-07-19T01:35:10;9.17;;;7.53;;
5452;SDS011;2749;53.576;9.822;2022-07-19T01:37:36;10.10;;;7.73;;
5452;SDS011;2749;53.576;9.822;2022-07-19T01:40:03;16.17;;;8.10;;
5452;SDS011;2749;53.576;9.822;2022-07-19T01:42:29;13.30;;;8.97;;
5452;SDS011;2749;53.576;9.822;2022-07-19T01:44:55;13.07;;;7.43;;
5452;SDS011;2749;53.576;9.822;2022-07-19T01:47:21;9.17;;;6.77;;
5452;SDS011;2749;53.576;9.822;2022-07-19T01:49:48;9.37;;;7.90;;
5452;SDS011;2749;53.576;9.822;2022-07-19T01:52:14;8.40;;;6.90;;
5452;SDS011;2749;53.576;9.822;2022-07-19T01:54:40;9.47;;;7.80;;
5452;SDS011;2749;53.576;9.822;2022-07-19T01:57:05;9.13;;;7.70;;
5452;SDS011;2749;53.576;9.822;2022-07-19T01:59:31;8.93;;;7.63;;
5452;SDS011;2749;53.576;9.822;2022-07-19T02:01:57;10.63;;;8.27;;
5452;SDS011;2749;53.576;9.822;2022-07-19T02:04:23;12.87;;;7.80;;
5452;SDS011;2749;53.576;9.822;2022-07-19T02:06:49;8.50;;;7.60;;
5452;SDS011;2749;53.576;9.822;2022-07-19T02:09:15;8.50;;;7.63;;
5452;SDS011;2749;53.576;9.822;2022-07-19T02:11:41;16.17;;;8.03;;
5452;SDS011;2749;53.576;9.822;2022-07-19T02:14:08;11.63;;;8.50;;
5452;SDS011;2749;53.576;9.822;2022-07-19T02:16:35;13.33;;;7.67;;
5452;SDS011;2749;53.576;9.822;2022-07-19T02:19:01;14.63;;;8.70;;
5452;SDS011;2749;53.576;9.822;2022-07-19T02:21:28;11.10;;;8.80;;
5452;SDS011;2749;53.576;9.822;2022-07-19T02:23:54;9.23;;;7.30;;
5452;SDS011;2749;53.576;9.822;2022-07-19T02:26:19;10.70;;;7.63;;
5452;SDS011;2749;53.576;9.822;2022-07-19T02:28:45;10.10;;;7.80;;
5452;SDS011;2749;53.576;9.822;2022-07-19T02:31:11;18.13;;;7.90;;
5452;SDS011;2749;53.576;9.822;2022-07-19T02:33:37;13.20;;;11.00;;
5452;SDS011;2749;53.576;9.822;2022-07-19T02:36:03;9.57;;;7.77;;
5452;SDS011;2749;53.576;9.822;2022-07-19T02:38:30;12.10;;;9.23;;
5452;SDS011;2749;53.576;9.822;2022-07-19T02:40:55;10.47;;;7.27;;
5452;SDS011;2749;53.576;9.822;2022-07-19T02:43:21;9.93;;;7.30;;
5452;SDS011;2749;53.576;9.822;2022-07-19T02:45:47;10.30;;;8.00;;
5452;SDS011;2749;53.576;9.822;2022-07-19T02:48:13;9.20;;;8.10;;
5452;SDS011;2749;53.576;9.822;2022-07-19T02:50:40;9.57;;;8.10;;
5452;SDS011;2749;53.576;9.822;2022-07-19T02:53:06;9.00;;;7.80;;
5452;SDS011;2749;53.576;9.822;2022-07-19T02:55:32;13.03;;;8.33;;
5452;SDS011;2749;53.576;9.822;2022-07-19T02:57:58;16.23;;;8.87;;
5452;SDS011;2749;53.576;9.822;2022-07-19T03:00:24;11.93;;;8.03;;
5452;SDS011;2749;53.576;9.822;2022-07-19T03:02:50;10.00;;;8.60;;
5452;SDS011;2749;53.576;9.822;2022-07-19T03:05:16;11.83;;;8.93;;
5452;SDS011;2749;53.576;9.822;2022-07-19T03:07:42;9.97;;;8.87;;
5452;SDS011;2749;53.576;9.822;2022-07-19T03:10:08;11.93;;;8.03;;
5452;SDS011;2749;53.576;9.822;2022-07-19T03:12:34;9.10;;;8.20;;
5452;SDS011;2749;53.576;9.822;2022-07-19T03:15:00;9.63;;;7.30;;
5452;SDS011;2749;53.576;9.822;2022-07-19T03:17:26;11.50;;;8.60;;
5452;SDS011;2749;53.576;9.822;2022-07-19T03:19:52;11.27;;;8.33;;
5452;SDS011;2749;53.576;9.822;2022-07-19T03:22:18;9.33;;;8.17;;
5452;SDS011;2749;53.576;9.822;2022-07-19T03:24:44;10.33;;;7.70;;
5452;SDS011;2749;53.576;9.822;2022-07-19T03:27:10;9.63;;;8.00;;
5452;SDS011;2749;53.576;9.822;2022-07-19T03:29:36;9.87;;;8.03;;
5452;SDS011;2749;53.576;9.822;2022-07-19T03:32:02;8.33;;;7.40;;
5452;SDS011;2749;53.576;9.822;2022-07-19T03:34:28;10.67;;;9.17;;
5452;SDS011;2749;53.576;9.822;2022-07-19T03:36:54;11.77;;;8.60;;
5452;SDS011;2749;53.576;9.822;2022-07-19T03:39:20;9.73;;;8.27;;
5452;SDS011;2749;53.576;9.822;2022-07-19T03:41:46;12.33;;;8.30;;
5452;SDS011;2749;53.576;9.822;2022-07-19T03:44:12;9.40;;;8.30;;
5452;SDS011;2749;53.576;9.822;2022-07-19T03:46:38;11.20;;;10.10;;
5452;SDS011;2749;53.576;9.822;2022-07-19T03:49:04;10.30;;;8.40;;
5452;SDS011;2749;53.576;9.822;2022-07-19T03:51:30;13.73;;;8.40;;
5452;SDS011;2749;53.576;9.822;2022-07-19T03:53:56;8.50;;;7.70;;
5452;SDS011;2749;53.576;9.822;2022-07-19T03:56:22;10.03;;;8.70;;
5452;SDS011;2749;53.576;9.822;2022-07-19T03:58:48;12.90;;;8.50;;
5452;SDS011;2749;53.576;9.822;2022-07-19T04:01:14;11.87;;;8.73;;
5452;SDS011;2749;53.576;9.822;2022-07-19T04:03:41;10.17;;;7.37;;
5452;SDS011;2749;53.576;9.822;2022-07-19T04:06:07;12.67;;;8.13;;
5452;SDS011;2749;53.576;9.822;2022-07-19T04:08:33;9.37;;;7.33;;
5452;SDS011;2749;53.576;9.822;2022-07-19T04:10:59;11.67;;;8.70;;
5452;SDS011;2749;53.576;9.822;2022-07-19T04:13:25;10.23;;;8.10;;
5452;SDS011;2749;53.576;9.822;2022-07-19T04:15:51;9.43;;;7.77;;
5452;SDS011;2749;53.576;9.822;2022-07-19T04:18:17;11.17;;;8.90;;
5452;SDS011;2749;53.576;9.822;2022-07-19T04:20:43;12.40;;;7.83;;
5452;SDS011;2749;53.576;9.822;2022-07-19T04:23:09;11.73;;;7.63;;
5452;SDS011;2749;53.576;9.822;2022-07-19T04:25:35;10.80;;;7.83;;
5452;SDS011;2749;53.576;9.822;2022-07-19T04:28:01;11.47;;;8.53;;
5452;SDS011;2749;53.576;9.822;2022-07-19T04:30:28;11.13;;;8.27;;
5452;SDS011;2749;53.576;9.822;2022-07-19T04:32:54;12.47;;;9.70;;
5452;SDS011;2749;53.576;9.822;2022-07-19T04:35:20;14.67;;;9.00;;
5452;SDS011;2749;53.576;9.822;2022-07-19T04:37:46;9.10;;;8.17;;
5452;SDS011;2749;53.576;9.822;2022-07-19T04:40:12;11.33;;;8.50;;
5452;SDS011;2749;53.576;9.822;2022-07-19T04:42:38;12.47;;;8.43;;
5452;SDS011;2749;53.576;9.822;2022-07-19T04:45:04;12.13;;;7.73;;
5452;SDS011;2749;53.576;9.822;2022-07-19T04:47:30;10.07;;;8.97;;
5452;SDS011;2749;53.576;9.822;2022-07-19T04:49:56;13.43;;;9.70;;
5452;SDS011;2749;53.576;9.822;2022-07-19T04:52:22;14.47;;;9.00;;
5452;SDS011;2749;53.576;9.822;2022-07-19T04:54:48;9.80;;;8.80;;
5452;SDS011;2749;53.576;9.822;2022-07-19T04:57:14;13.73;;;9.17;;
5452;SDS011;2749;53.576;9.822;2022-07-19T04:59:40;9.63;;;8.40;;
5452;SDS011;2749;53.576;9.822;2022-07-19T05:02:06;8.53;;;6.97;;
5452;SDS011;2749;53.576;9.822;2022-07-19T05:04:32;9.47;;;7.90;;
5452;SDS011;2749;53.576;9.822;2022-07-19T05:06:58;11.83;;;7.93;;
5452;SDS011;2749;53.576;9.822;2022-07-19T05:09:25;10.17;;;8.30;;
5452;SDS011;2749;53.576;9.822;2022-07-19T05:11:51;9.60;;;8.60;;
5452;SDS011;2749;53.576;9.822;2022-07-19T05:14:17;9.23;;;7.73;;
5452;SDS011;2749;53.576;9.822;2022-07-19T05:16:44;9.87;;;8.30;;
5452;SDS011;2749;53.576;9.822;2022-07-19T05:19:09;10.20;;;8.83;;
5452;SDS011;2749;53.576;9.822;2022-07-19T05:21:36;9.83;;;8.70;;
5452;SDS011;2749;53.576;9.822;2022-07-19T05:24:02;9.83;;;7.83;;
5452;SDS011;2749;53.576;9.822;2022-07-19T05:26:28;9.90;;;8.37;;
5452;SDS011;2749;53.576;9.822;2022-07-19T05:28:54;11.30;;;9.43;;
5452;SDS011;2749;53.576;9.822;2022-07-19T05:31:20;11.40;;;9.70;;
5452;SDS011;2749;53.576;9.822;2022-07-19T05:33:45;10.50;;;9.10;;
5452;SDS011;2749;53.576;9.822;2022-07-19T05:36:11;13.37;;;10.50;;
5452;SDS011;2749;53.576;9.822;2022-07-19T05:38:38;10.43;;;8.27;;
5452;SDS011;2749;53.576;9.822;2022-07-19T05:41:04;8.97;;;8.07;;
5452;SDS011;2749;53.576;9.822;2022-07-19T05:43:30;9.03;;;8.13;;
5452;SDS011;2749;53.576;9.822;2022-07-19T05:45:56;9.53;;;8.40;;
5452;SDS011;2749;53.576;9.822;2022-07-19T05:48:22;15.10;;;8.30;;
5452;SDS011;2749;53.576;9.822;2022-07-19T05:50:48;10.50;;;8.13;;
5452;SDS011;2749;53.576;9.822;2022-07-19T05:53:14;9.43;;;7.90;;
5452;SDS011;2749;53.576;9.822;2022-07-19T05:55:42;10.40;;;8.03;;
5452;SDS011;2749;53.576;9.822;2022-07-19T05:58:08;9.57;;;8.57;;
5452;SDS011;2749;53.576;9.822;2022-07-19T06:00:34;9.67;;;8.10;;
5452;SDS011;2749;53.576;9.822;2022-07-19T06:03:00;8.43;;;7.27;;
5452;SDS011;2749;53.576;9.822;2022-07-19T06:05:26;9.73;;;6.50;;
5452;SDS011;2749;53.576;9.822;2022-07-19T06:07:52;10.90;;;6.80;;
5452;SDS011;2749;53.576;9.822;2022-07-19T06:10:18;7.87;;;7.17;;
5452;SDS011;2749;53.576;9.822;2022-07-19T06:12:44;8.07;;;7.37;;
5452;SDS011;2749;53.576;9.822;2022-07-19T06:15:10;15.10;;;7.50;;
5452;SDS011;2749;53.576;9.822;2022-07-19T06:17:36;7.03;;;6.33;;
5452;SDS011;2749;53.576;9.822;2022-07-19T06:20:02;7.60;;;6.27;;
5452;SDS011;2749;53.576;9.822;2022-07-19T06:22:31;15.30;;;7.30;;
5452;SDS011;2749;53.576;9.822;2022-07-19T06:24:57;11.73;;;6.77;;
5452;SDS011;2749;53.576;9.822;2022-07-19T06:27:23;10.00;;;6.77;;
5452;SDS011;2749;53.576;9.822;2022-07-19T06:29:49;9.47;;;6.50;;
5452;SDS011;2749;53.576;9.822;2022-07-19T06:32:15;6.70;;;6.00;;
5452;SDS011;2749;53.576;9.822;2022-07-19T06:34:41;10.40;;;6.20;;
5452;SDS011;2749;53.576;9.822;2022-07-19T06:37:07;11.77;;;5.90;;
5452;SDS011;2749;53.576;9.822;2022-07-19T06:39:33;7.37;;;6.17;;
5452;SDS011;2749;53.576;9.822;2022-07-19T06:41:59;7.07;;;6.37;;
5452;SDS011;2749;53.576;9.822;2022-07-19T06:44:26;11.37;;;6.20;;
5452;SDS011;2749;53.576;9.822;2022-07-19T06:46:52;6.80;;;5.40;;
5452;SDS011;2749;53.576;9.822;2022-07-19T06:49:17;12.13;;;6.27;;
5452;SDS011;2749;53.576;9.822;2022-07-19T06:51:43;7.73;;;6.07;;
5452;SDS011;2749;53.576;9.822;2022-07-19T06:54:09;7.77;;;6.27;;
5452;SDS011;2749;53.576;9.822;2022-07-19T06:56:35;8.10;;;5.13;;
5452;SDS011;2749;53.576;9.822;2022-07-19T06:59:01;10.50;;;6.93;;
5452;SDS011;2749;53.576;9.822;2022-07-19T07:01:27;7.07;;;6.40;;
5452;SDS011;2749;53.576;9.822;2022-07-19T07:03:53;9.13;;;6.63;;
5452;SDS011;2749;53.576;9.822;2022-07-19T07:06:19;7.10;;;5.27;;
5452;SDS011;2749;53.576;9.822;2022-07-19T07:08:45;7.50;;;6.00;;
5452;SDS011;2749;53.576;9.822;2022-07-19T07:11:11;7.70;;;5.43;;
5452;SDS011;2749;53.576;9.822;2022-07-19T07:13:37;7.67;;;5.57;;
5452;SDS011;2749;53.576;9.822;2022-07-19T07:16:03;7.63;;;5.83;;
5452;SDS011;2749;53.576;9.822;2022-07-19T07:18:29;6.60;;;5.77;;
5452;SDS011;2749;53.576;9.822;2022-07-19T07:20:55;8.53;;;6.20;;
5452;SDS011;2749;53.576;9.822;2022-07-19T07:23:21;13.00;;;6.53;;
5452;SDS011;2749;53.576;9.822;2022-07-19T07:25:49;8.83;;;5.80;;
5452;SDS011;2749;53.576;9.822;2022-07-19T07:28:14;7.17;;;5.67;;
5452;SDS011;2749;53.576;9.822;2022-07-19T07:30:41;8.33;;;6.07;;
5452;SDS011;2749;53.576;9.822;2022-07-19T07:33:07;10.43;;;5.70;;
5452;SDS011;2749;53.576;9.822;2022-07-19T07:35:33;9.07;;;6.07;;
5452;SDS011;2749;53.576;9.822;2022-07-19T07:37:59;13.30;;;6.80;;
5452;SDS011;2749;53.576;9.822;2022-07-19T07:40:25;7.43;;;6.53;;
5452;SDS011;2749;53.576;9.822;2022-07-19T07:42:51;9.20;;;7.67;;
5452;SDS011;2749;53.576;9.822;2022-07-19T07:45:17;11.70;;;8.03;;
5452;SDS011;2749;53.576;9.822;2022-07-19T07:47:43;13.83;;;9.70;;
5452;SDS011;2749;53.576;9.822;2022-07-19T07:50:10;7.10;;;6.00;;
5452;SDS011;2749;53.576;9.822;2022-07-19T07:52:36;11.13;;;8.70;;
5452;SDS011;2749;53.576;9.822;2022-07-19T07:55:02;8.97;;;6.93;;
5452;SDS011;2749;53.576;9.822;2022-07-19T07:57:29;11.63;;;6.83;;
5452;SDS011;2749;53.576;9.822;2022-07-19T07:59:55;8.20;;;6.57;;
5452;SDS011;2749;53.576;9.822;2022-07-19T08:02:21;7.40;;;5.53;;
5452;SDS011;2749;53.576;9.822;2022-07-19T08:04:46;8.00;;;6.50;;
5452;SDS011;2749;53.576;9.822;2022-07-19T08:07:12;9.30;;;6.40;;
5452;SDS011;2749;53.576;9.822;2022-07-19T08:09:38;5.23;;;4.70;;
5452;SDS011;2749;53.576;9.822;2022-07-19T08:12:04;6.83;;;5.20;;
5452;SDS011;2749;53.576;9.822;2022-07-19T08:14:30;6.00;;;5.07;;
5452;SDS011;2749;53.576;9.822;2022-07-19T08:16:56;7.20;;;5.70;;
5452;SDS011;2749;53.576;9.822;2022-07-19T08:19:23;6.83;;;5.87;;
5452;SDS011;2749;53.576;9.822;2022-07-19T08:21:49;8.70;;;5.33;;
5452;SDS011;2749;53.576;9.822;2022-07-19T08:24:15;7.70;;;4.93;;
5452;SDS011;2749;53.576;9.822;2022-07-19T08:26:41;9.03;;;5.47;;
5452;SDS011;2749;53.576;9.822;2022-07-19T08:29:07;9.60;;;6.80;;
5452;SDS011;2749;53.576;9.822;2022-07-19T08:31:33;6.40;;;5.80;;
5452;SDS011;2749;53.576;9.822;2022-07-19T08:33:59;8.33;;;6.17;;
5452;SDS011;2749;53.576;9.822;2022-07-19T08:36:25;10.80;;;6.60;;
5452;SDS011;2749;53.576;9.822;2022-07-19T08:38:51;9.60;;;5.67;;
5452;SDS011;2749;53.576;9.822;2022-07-19T08:41:17;8.90;;;7.57;;
5452;SDS011;2749;53.576;9.822;2022-07-19T08:43:43;10.30;;;7.37;;
5452;SDS011;2749;53.576;9.822;2022-07-19T08:46:09;10.07;;;7.13;;
5452;SDS011;2749;53.576;9.822;2022-07-19T08:48:36;7.70;;;5.50;;
5452;SDS011;2749;53.576;9.822;2022-07-19T08:51:04;8.40;;;5.80;;
5452;SDS011;2749;53.576;9.822;2022-07-19T08:53:30;6.20;;;5.47;;
5452;SDS011;2749;53.576;9.822;2022-07-19T08:55:57;6.00;;;5.20;;
5452;SDS011;2749;53.576;9.822;2022-07-19T08:58:23;6.33;;;5.30;;
5452;SDS011;2749;53.576;9.822;2022-07-19T09:00:49;6.93;;;4.77;;
5452;SDS011;2749;53.576;9.822;2022-07-19T09:03:15;6.50;;;5.53;;
5452;SDS011;2749;53.576;9.822;2022-07-19T09:05:41;7.33;;;5.20;;
5452;SDS011;2749;53.576;9.822;2022-07-19T09:08:11;8.10;;;5.27;;
5452;SDS011;2749;53.576;9.822;2022-07-19T09:10:38;9.50;;;5.70;;
5452;SDS011;2749;53.576;9.822;2022-07-19T09:13:12;7.30;;;6.13;;
5452;SDS011;2749;53.576;9.822;2022-07-19T09:15:51;11.97;;;5.27;;
5452;SDS011;2749;53.576;9.822;2022-07-19T09:18:20;7.53;;;5.53;;
5452;SDS011;2749;53.576;9.822;2022-07-19T09:20:47;6.97;;;5.77;;
5452;SDS011;2749;53.576;9.822;2022-07-19T09:23:14;6.80;;;5.40;;
5452;SDS011;2749;53.576;9.822;2022-07-19T09:25:44;7.47;;;6.00;;
5452;SDS011;2749;53.576;9.822;2022-07-19T09:28:11;7.90;;;6.00;;
5452;SDS011;2749;53.576;9.822;2022-07-19T09:30:41;12.20;;;5.57;;
5452;SDS011;2749;53.576;9.822;2022-07-19T09:33:09;9.37;;;5.90;;
5452;SDS011;2749;53.576;9.822;2022-07-19T09:35:36;8.00;;;5.60;;
5452;SDS011;2749;53.576;9.822;2022-07-19T09:38:13;5.53;;;4.50;;
5452;SDS011;2749;53.576;9.822;2022-07-19T09:40:39;5.63;;;5.07;;
5452;SDS011;2749;53.576;9.822;2022-07-19T09:43:05;7.77;;;5.10;;
5452;SDS011;2749;53.576;9.822;2022-07-19T09:45:31;6.23;;;4.73;;
5452;SDS011;2749;53.576;9.822;2022-07-19T09:47:58;6.03;;;5.47;;
5452;SDS011;2749;53.576;9.822;2022-07-19T09:50:25;6.20;;;5.60;;
5452;SDS011;2749;53.576;9.822;2022-07-19T09:52:52;9.50;;;5.40;;
5452;SDS011;2749;53.576;9.822;2022-07-19T09:55:18;6.93;;;5.07;;
5452;SDS011;2749;53.576;9.822;2022-07-19T09:57:45;6.07;;;5.47;;
5452;SDS011;2749;53.576;9.822;2022-07-19T10:00:11;6.40;;;5.77;;
5452;SDS011;2749;53.576;9.822;2022-07-19T10:02:38;11.70;;;5.40;;
5452;SDS011;2749;53.576;9.822;2022-07-19T10:05:05;5.77;;;5.17;;
5452;SDS011;2749;53.576;9.822;2022-07-19T10:07:32;6.07;;;5.57;;
5452;SDS011;2749;53.576;9.822;2022-07-19T10:10:05;5.47;;;4.97;;
5452;SDS011;2749;53.576;9.822;2022-07-19T10:12:31;5.80;;;5.30;;
5452;SDS011;2749;53.576;9.822;2022-07-19T10:14:57;5.73;;;4.33;;
5452;SDS011;2749;53.576;9.822;2022-07-19T10:17:32;6.83;;;4.83;;
5452;SDS011;2749;53.576;9.822;2022-07-19T10:19:59;7.20;;;5.03;;
5452;SDS011;2749;53.576;9.822;2022-07-19T10:22:26;4.53;;;4.13;;
5452;SDS011;2749;53.576;9.822;2022-07-19T10:24:56;7.47;;;4.53;;
5452;SDS011;2749;53.576;9.822;2022-07-19T10:32:30;5.27;;;4.80;;
5452;SDS011;2749;53.576;9.822;2022-07-19T10:37:44;5.73;;;4.23;;
5452;SDS011;2749;53.576;9.822;2022-07-19T10:40:10;4.67;;;4.27;;
5452;SDS011;2749;53.576;9.822;2022-07-19T10:42:36;4.97;;;4.43;;
5452;SDS011;2749;53.576;9.822;2022-07-19T10:50:01;5.50;;;4.47;;
5452;SDS011;2749;53.576;9.822;2022-07-19T10:57:38;5.97;;;4.90;;
5452;SDS011;2749;53.576;9.822;2022-07-19T11:00:17;5.00;;;4.50;;
5452;SDS011;2749;53.576;9.822;2022-07-19T11:02:43;5.83;;;5.33;;
5452;SDS011;2749;53.576;9.822;2022-07-19T11:05:28;6.80;;;6.03;;
5452;SDS011;2749;53.576;9.822;2022-07-19T11:07:55;6.03;;;5.47;;
5452;SDS011;2749;53.576;9.822;2022-07-19T11:10:26;4.73;;;3.93;;
5452;SDS011;2749;53.576;9.822;2022-07-19T11:12:52;4.83;;;4.37;;
5452;SDS011;2749;53.576;9.822;2022-07-19T11:15:19;4.87;;;4.47;;
5452;SDS011;2749;53.576;9.822;2022-07-19T11:20:16;6.20;;;3.80;;
5452;SDS011;2749;53.576;9.822;2022-07-19T11:22:45;4.70;;;4.30;;
5452;SDS011;2749;53.576;9.822;2022-07-19T11:25:11;4.83;;;4.33;;
5452;SDS011;2749;53.576;9.822;2022-07-19T11:27:44;5.33;;;4.00;;
5452;SDS011;2749;53.576;9.822;2022-07-19T11:30:11;4.77;;;4.23;;
5452;SDS011;2749;53.576;9.822;2022-07-19T11:32:38;6.10;;;4.10;;
5452;SDS011;2749;53.576;9.822;2022-07-19T11:35:07;7.07;;;4.90;;
5452;SDS011;2749;53.576;9.822;2022-07-19T11:37:34;3.73;;;3.43;;
5452;SDS011;2749;53.576;9.822;2022-07-19T11:40:00;4.70;;;4.20;;
5452;SDS011;2749;53.576;9.822;2022-07-19T11:45:08;5.80;;;3.70;;
5452;SDS011;2749;53.576;9.822;2022-07-19T11:47:34;4.47;;;4.07;;
5452;SDS011;2749;53.576;9.822;2022-07-19T11:50:04;6.77;;;4.57;;
5452;SDS011;2749;53.576;9.822;2022-07-19T11:52:40;4.53;;;4.10;;
5452;SDS011;2749;53.576;9.822;2022-07-19T11:55:06;6.27;;;5.30;;
5452;SDS011;2749;53.576;9.822;2022-07-19T11:57:32;5.43;;;4.37;;
5452;SDS011;2749;53.576;9.822;2022-07-19T11:59:58;4.90;;;4.20;;
5452;SDS011;2749;53.576;9.822;2022-07-19T12:02:24;6.00;;;4.53;;
5452;SDS011;2749;53.576;9.822;2022-07-19T12:04:50;5.33;;;4.83;;
5452;SDS011;2749;53.576;9.822;2022-07-19T12:07:17;4.87;;;4.47;;
5452;SDS011;2749;53.576;9.822;2022-07-19T12:09:44;4.70;;;4.30;;
5452;SDS011;2749;53.576;9.822;2022-07-19T12:12:14;4.57;;;4.17;;
5452;SDS011;2749;53.576;9.822;2022-07-19T12:14:40;4.80;;;4.30;;
5452;SDS011;2749;53.576;9.822;2022-07-19T12:17:19;4.93;;;4.07;;
5452;SDS011;2749;53.576;9.822;2022-07-19T12:19:47;7.70;;;7.00;;
5452;SDS011;2749;53.576;9.822;2022-07-19T12:24:51;5.03;;;4.53;;
5452;SDS011;2749;53.576;9.822;2022-07-19T12:27:17;5.10;;;4.60;;
5452;SDS011;2749;53.576;9.822;2022-07-19T12:29:46;5.10;;;4.60;;
5452;SDS011;2749;53.576;9.822;2022-07-19T12:32:14;5.20;;;4.00;;
5452;SDS011;2749;53.576;9.822;2022-07-19T12:34:44;12.13;;;4.50;;
5452;SDS011;2749;53.576;9.822;2022-07-19T12:37:20;4.93;;;3.67;;
5452;SDS011;2749;53.576;9.822;2022-07-19T12:42:45;5.20;;;4.40;;
5452;SDS011;2749;53.576;9.822;2022-07-19T12:45:14;6.60;;;4.23;;
5452;SDS011;2749;53.576;9.822;2022-07-19T12:47:41;5.17;;;4.77;;
5452;SDS011;2749;53.576;9.822;2022-07-19T12:50:07;4.50;;;4.07;;
5452;SDS011;2749;53.576;9.822;2022-07-19T12:52:34;4.90;;;3.70;;
5452;SDS011;2749;53.576;9.822;2022-07-19T12:55:00;11.70;;;4.53;;
5452;SDS011;2749;53.576;9.822;2022-07-19T12:57:26;9.07;;;3.93;;
5452;SDS011;2749;53.576;9.822;2022-07-19T12:59:53;5.87;;;4.70;;
5452;SDS011;2749;53.576;9.822;2022-07-19T13:02:19;7.23;;;4.70;;
5452;SDS011;2749;53.576;9.822;2022-07-19T13:04:45;4.27;;;3.30;;
5452;SDS011;2749;53.576;9.822;2022-07-19T13:07:12;4.50;;;4.10;;
5452;SDS011;2749;53.576;9.822;2022-07-19T13:09:38;5.40;;;4.37;;
5452;SDS011;2749;53.576;9.822;2022-07-19T13:12:06;4.77;;;4.10;;
5452;SDS011;2749;53.576;9.822;2022-07-19T13:14:33;4.57;;;3.90;;
5452;SDS011;2749;53.576;9.822;2022-07-19T13:16:59;6.20;;;3.20;;
5452;SDS011;2749;53.576;9.822;2022-07-19T13:19:25;4.37;;;3.97;;
5452;SDS011;2749;53.576;9.822;2022-07-19T13:21:51;3.90;;;3.33;;
5452;SDS011;2749;53.576;9.822;2022-07-19T13:24:18;4.30;;;3.67;;
5452;SDS011;2749;53.576;9.822;2022-07-19T13:26:44;3.97;;;3.57;;
5452;SDS011;2749;53.576;9.822;2022-07-19T13:29:10;7.50;;;4.17;;
5452;SDS011;2749;53.576;9.822;2022-07-19T13:31:36;4.00;;;3.60;;
5452;SDS011;2749;53.576;9.822;2022-07-19T13:34:02;5.70;;;3.87;;
5452;SDS011;2749;53.576;9.822;2022-07-19T13:36:28;5.53;;;3.83;;
5452;SDS011;2749;53.576;9.822;2022-07-19T13:38:54;3.53;;;3.23;;
5452;SDS011;2749;53.576;9.822;2022-07-19T13:41:20;4.17;;;3.87;;
5452;SDS011;2749;53.576;9.822;2022-07-19T13:43:46;3.83;;;3.53;;
5452;SDS011;2749;53.576;9.822;2022-07-19T13:46:13;4.07;;;3.77;;
5452;SDS011;2749;53.576;9.822;2022-07-19T13:48:39;4.13;;;3.43;;
5452;SDS011;2749;53.576;9.822;2022-07-19T13:51:06;4.80;;;4.27;;
5452;SDS011;2749;53.576;9.822;2022-07-19T13:53:32;5.43;;;4.27;;
5452;SDS011;2749;53.576;9.822;2022-07-19T13:55:58;7.30;;;3.87;;
5452;SDS011;2749;53.576;9.822;2022-07-19T13:58:24;4.90;;;4.50;;
5452;SDS011;2749;53.576;9.822;2022-07-19T14:00:49;4.33;;;3.93;;
5452;SDS011;2749;53.576;9.822;2022-07-19T14:03:16;5.53;;;3.97;;
5452;SDS011;2749;53.576;9.822;2022-07-19T14:05:42;6.17;;;4.60;;
5452;SDS011;2749;53.576;9.822;2022-07-19T14:08:08;5.13;;;3.80;;
5452;SDS011;2749;53.576;9.822;2022-07-19T14:10:34;5.23;;;4.73;;
5452;SDS011;2749;53.576;9.822;2022-07-19T14:13:00;5.23;;;3.70;;
5452;SDS011;2749;53.576;9.822;2022-07-19T14:15:26;4.50;;;3.83;;
5452;SDS011;2749;53.576;9.822;2022-07-19T14:17:52;4.70;;;4.30;;
5452;SDS011;2749;53.576;9.822;2022-07-19T14:20:18;5.27;;;3.97;;
5452;SDS011;2749;53.576;9.822;2022-07-19T14:22:44;4.40;;;3.83;;
5452;SDS011;2749;53.576;9.822;2022-07-19T14:25:10;4.17;;;3.23;;
5452;SDS011;2749;53.576;9.822;2022-07-19T14:27:36;4.07;;;3.77;;
5452;SDS011;2749;53.576;9.822;2022-07-19T14:30:02;4.43;;;4.03;;
5452;SDS011;2749;53.576;9.822;2022-07-19T14:32:28;4.83;;;4.07;;
5452;SDS011;2749;53.576;9.822;2022-07-19T14:34:54;4.27;;;3.97;;
5452;SDS011;2749;53.576;9.822;2022-07-19T14:37:20;6.93;;;4.23;;
5452;SDS011;2749;53.576;9.822;2022-07-19T14:39:46;4.50;;;3.50;;
5452;SDS011;2749;53.576;9.822;2022-07-19T14:42:12;6.63;;;4.07;;
5452;SDS011;2749;53.576;9.822;2022-07-19T14:44:38;4.43;;;3.13;;
5452;SDS011;2749;53.576;9.822;2022-07-19T14:47:04;4.03;;;3.63;;
5452;SDS011;2749;53.576;9.822;2022-07-19T14:49:31;5.03;;;3.67;;
5452;SDS011;2749;53.576;9.822;2022-07-19T14:51:57;3.90;;;3.37;;
5452;SDS011;2749;53.576;9.822;2022-07-19T14:54:23;3.77;;;3.47;;
5452;SDS011;2749;53.576;9.822;2022-07-19T14:56:49;3.80;;;3.60;;
5452;SDS011;2749;53.576;9.822;2022-07-19T14:59:16;5.07;;;3.40;;
5452;SDS011;2749;53.576;9.822;2022-07-19T15:01:42;3.50;;;3.23;;
5452;SDS011;2749;53.576;9.822;2022-07-19T15:04:08;4.10;;;2.93;;
5452;SDS011;2749;53.576;9.822;2022-07-19T15:06:34;4.13;;;3.37;;
5452;SDS011;2749;53.576;9.822;2022-07-19T15:08:59;6.03;;;3.33;;
5452;SDS011;2749;53.576;9.822;2022-07-19T15:11:25;3.50;;;3.27;;
5452;SDS011;2749;53.576;9.822;2022-07-19T15:13:51;3.00;;;2.80;;
5452;SDS011;2749;53.576;9.822;2022-07-19T15:16:17;3.57;;;3.30;;
5452;SDS011;2749;53.576;9.822;2022-07-19T15:18:43;3.97;;;3.50;;
5452;SDS011;2749;53.576;9.822;2022-07-19T15:21:09;3.40;;;3.10;;
5452;SDS011;2749;53.576;9.822;2022-07-19T15:23:35;6.13;;;3.43;;
5452;SDS011;2749;53.576;9.822;2022-07-19T15:26:01;5.00;;;3.23;;
5452;SDS011;2749;53.576;9.822;2022-07-19T15:28:27;3.63;;;3.20;;
5452;SDS011;2749;53.576;9.822;2022-07-19T15:30:53;4.27;;;3.97;;
5452;SDS011;2749;53.576;9.822;2022-07-19T15:33:19;3.50;;;3.20;;
5452;SDS011;2749;53.576;9.822;2022-07-19T15:35:45;4.10;;;3.73;;